createdAt,value
2023-01-22T00:01:17.779Z,11.01
2023-01-22T00:03:46.956Z,11.10
2023-01-22T00:06:15.792Z,11.12
2023-01-22T00:08:44.156Z,11.08
2023-01-22T00:11:12.911Z,11.15
2023-01-22T00:13:42.366Z,11.07
2023-01-22T00:16:13.489Z,11.04
2023-01-22T00:18:42.013Z,11.10
2023-01-22T00:21:10.055Z,11.06
2023-01-22T00:23:38.767Z,11.05
2023-01-22T00:26:11.031Z,11.12
2023-01-22T00:28:39.093Z,11.11
2023-01-22T00:31:09.495Z,10.98
2023-01-22T00:33:38.945Z,11.01
2023-01-22T00:36:08.192Z,11.10
2023-01-22T00:38:36.215Z,11.02
2023-01-22T00:41:05.860Z,11.06
2023-01-22T00:43:35.480Z,10.98
2023-01-22T00:46:03.465Z,10.94
2023-01-22T00:48:33.165Z,10.91
2023-01-22T00:51:01.106Z,10.80
2023-01-22T00:53:29.065Z,10.80
2023-01-22T00:55:58.749Z,10.62
2023-01-22T00:58:27.011Z,10.59
2023-01-22T01:00:54.982Z,10.57
2023-01-22T01:03:31.753Z,10.58
2023-01-22T01:06:03.176Z,10.58
2023-01-22T01:08:33.659Z,10.55
2023-01-22T01:11:04.015Z,10.53
2023-01-22T01:13:34.154Z,10.57
2023-01-22T01:16:04.144Z,10.52
2023-01-22T01:18:32.904Z,10.37
2023-01-22T01:21:02.231Z,10.47
2023-01-22T01:23:30.416Z,10.31
2023-01-22T01:25:58.601Z,10.30
2023-01-22T01:28:28.820Z,10.45
2023-01-22T01:30:56.948Z,10.45
2023-01-22T01:33:24.934Z,10.41
2023-01-22T01:36:00.255Z,10.41
2023-01-22T01:38:29.615Z,10.47
2023-01-22T01:40:57.575Z,10.53
2023-01-22T01:43:25.570Z,10.32
2023-01-22T01:45:54.725Z,10.35
2023-01-22T01:48:29.572Z,10.37
2023-01-22T01:51:02.580Z,10.42
2023-01-22T01:53:32.812Z,10.43
2023-01-22T01:56:03.168Z,10.63
2023-01-22T01:58:35.149Z,10.74
2023-01-22T02:01:09.226Z,10.84
2023-01-22T02:03:36.975Z,10.62
2023-01-22T02:06:05.260Z,10.53
2023-01-22T02:08:34.560Z,10.58
2023-01-22T02:11:02.510Z,10.67
2023-01-22T02:13:33.633Z,10.76
2023-01-22T02:16:01.618Z,10.67
2023-01-22T02:18:29.577Z,10.70
2023-01-22T02:21:00.904Z,10.66
2023-01-22T02:23:29.666Z,10.59
2023-01-22T02:25:58.864Z,10.47
2023-01-22T02:28:26.833Z,10.51
2023-01-22T02:30:54.752Z,10.53
2023-01-22T02:33:22.689Z,10.64
2023-01-22T02:35:50.597Z,10.45
2023-01-22T02:38:19.903Z,10.50
2023-01-22T02:40:50.149Z,10.36
2023-01-22T02:43:18.095Z,10.50
2023-01-22T02:45:46.069Z,10.55
2023-01-22T02:48:14.209Z,10.34
2023-01-22T02:50:42.116Z,10.49
2023-01-22T02:53:10.019Z,10.43
2023-01-22T02:55:40.357Z,10.25
2023-01-22T02:58:08.248Z,10.13
2023-01-22T03:00:36.155Z,10.15
2023-01-22T03:03:07.832Z,10.04
2023-01-22T03:05:35.836Z,10.16
2023-01-22T03:08:03.748Z,10.44
2023-01-22T03:10:31.680Z,10.55
2023-01-22T03:13:18.275Z,10.62
2023-01-22T03:16:03.482Z,10.61
2023-01-22T03:18:50.574Z,10.58
2023-01-22T03:21:18.866Z,10.56
2023-01-22T03:23:48.719Z,10.58
2023-01-22T03:26:17.101Z,10.56
2023-01-22T03:28:47.069Z,10.59
2023-01-22T03:31:16.277Z,10.68
2023-01-22T03:33:45.047Z,10.77
2023-01-22T03:36:15.327Z,10.79
2023-01-22T03:38:45.134Z,10.77
2023-01-22T03:41:16.094Z,10.82
2023-01-22T03:43:44.082Z,10.77
2023-01-22T03:46:15.019Z,10.85
2023-01-22T03:48:43.478Z,10.78
2023-01-22T03:51:14.260Z,10.72
2023-01-22T03:53:43.443Z,10.59
2023-01-22T03:56:13.679Z,10.52
2023-01-22T03:58:42.184Z,10.54
2023-01-22T04:01:12.632Z,10.61
2023-01-22T04:03:42.161Z,10.66
2023-01-22T04:06:11.724Z,10.70
2023-01-22T04:08:41.132Z,10.72
2023-01-22T04:11:09.549Z,10.71
2023-01-22T04:13:38.969Z,10.62
2023-01-22T04:16:08.078Z,10.32
2023-01-22T04:18:36.129Z,10.26
2023-01-22T04:21:05.868Z,10.28
2023-01-22T04:23:34.226Z,10.18
2023-01-22T04:26:02.121Z,10.18
2023-01-22T04:28:30.062Z,10.33
2023-01-22T04:30:58.197Z,10.19
2023-01-22T04:33:26.317Z,10.18
2023-01-22T04:35:56.426Z,10.25
2023-01-22T04:38:25.806Z,10.33
2023-01-22T04:40:53.777Z,10.23
2023-01-22T04:43:21.703Z,10.13
2023-01-22T04:45:51.363Z,10.06
2023-01-22T04:48:19.334Z,10.20
2023-01-22T04:50:47.354Z,10.01
2023-01-22T04:53:15.367Z,10.09
2023-01-22T04:55:44.766Z,10.11
2023-01-22T04:58:12.672Z,10.19
2023-01-22T05:00:40.561Z,10.23
2023-01-22T05:03:08.500Z,10.02
2023-01-22T05:05:36.376Z,10.16
2023-01-22T05:08:04.412Z,10.18
2023-01-22T05:10:32.326Z,10.04
2023-01-22T05:13:05.907Z,10.11
2023-01-22T05:15:34.507Z,10.17
2023-01-22T05:18:02.475Z,10.01
2023-01-22T05:20:30.438Z,10.19
2023-01-22T05:22:58.327Z,10.19
2023-01-22T05:25:26.220Z,10.11
2023-01-22T05:27:54.137Z,10.17
2023-01-22T05:30:23.580Z,10.11
2023-01-22T05:32:55.637Z,10.17
2023-01-22T05:35:23.578Z,10.10
2023-01-22T05:37:51.467Z,10.17
2023-01-22T05:40:19.746Z,10.09
2023-01-22T05:42:47.846Z,9.95
2023-01-22T05:45:15.769Z,9.96
2023-01-22T05:47:45.050Z,9.58
2023-01-22T05:50:12.945Z,10.03
2023-01-22T05:52:40.842Z,9.86
2023-01-22T05:55:09.431Z,10.02
2023-01-22T05:57:37.354Z,10.01
2023-01-22T06:00:08.543Z,9.92
2023-01-22T06:02:36.452Z,9.90
2023-01-22T06:05:06.552Z,9.76
2023-01-22T06:07:34.575Z,9.93
2023-01-22T06:10:02.527Z,9.93
2023-01-22T06:12:30.432Z,9.95
2023-01-22T06:14:58.287Z,10.07
2023-01-22T06:17:26.247Z,10.08
2023-01-22T06:19:54.191Z,10.17
2023-01-22T06:22:23.502Z,10.16
2023-01-22T06:24:51.936Z,10.09
2023-01-22T06:27:20.381Z,9.81
2023-01-22T06:29:48.266Z,9.79
2023-01-22T06:32:16.148Z,9.68
2023-01-22T06:34:44.141Z,9.77
2023-01-22T06:37:12.077Z,9.84
2023-01-22T06:39:41.678Z,9.95
2023-01-22T06:42:09.596Z,9.90
2023-01-22T06:44:37.481Z,9.96
2023-01-22T06:47:05.415Z,10.06
2023-01-22T06:49:33.302Z,10.03
2023-01-22T06:52:01.231Z,10.07
2023-01-22T06:54:29.130Z,10.14
2023-01-22T06:56:58.402Z,10.19
2023-01-22T06:59:26.311Z,10.21
2023-01-22T07:01:54.288Z,10.34
2023-01-22T07:04:22.218Z,10.40
2023-01-22T07:06:50.144Z,10.48
2023-01-22T07:09:18.022Z,10.66
2023-01-22T07:11:45.975Z,10.68
2023-01-22T07:14:15.280Z,10.69
2023-01-22T07:16:43.180Z,10.89
2023-01-22T07:19:11.094Z,10.79
2023-01-22T07:21:39.013Z,10.86
2023-01-22T07:24:07.796Z,11.00
2023-01-22T07:26:36.190Z,11.00
2023-01-22T07:29:04.246Z,11.09
2023-01-22T07:31:33.539Z,11.28
2023-01-22T07:34:01.436Z,11.31
2023-01-22T07:36:29.309Z,11.36
2023-01-22T07:38:57.355Z,11.47
2023-01-22T07:41:26.499Z,11.59
2023-01-22T07:43:56.224Z,11.37
2023-01-22T07:46:24.385Z,11.42
2023-01-22T07:48:53.679Z,11.44
2023-01-22T07:51:21.737Z,11.43
2023-01-22T07:53:49.653Z,11.36
2023-01-22T07:56:19.110Z,11.25
2023-01-22T07:58:50.189Z,11.20
2023-01-22T08:01:18.185Z,11.18
2023-01-22T08:03:46.778Z,11.19
2023-01-22T08:06:20.731Z,11.23
2023-01-22T08:08:48.687Z,11.01
2023-01-22T08:11:16.735Z,10.94
2023-01-22T08:13:44.667Z,10.84
2023-01-22T08:16:12.617Z,10.90
2023-01-22T08:18:40.550Z,10.85
2023-01-22T08:21:08.492Z,11.22
2023-01-22T08:23:37.753Z,11.42
2023-01-22T08:26:06.160Z,11.51
2023-01-22T08:28:34.155Z,11.55
2023-01-22T08:31:03.345Z,11.71
2023-01-22T08:33:33.805Z,11.91
2023-01-22T08:36:01.734Z,11.97
2023-01-22T08:38:29.611Z,11.92
2023-01-22T08:40:58.939Z,12.01
2023-01-22T08:43:26.854Z,12.02
2023-01-22T08:45:54.927Z,12.07
2023-01-22T08:48:22.874Z,12.00
2023-01-22T08:50:50.810Z,12.07
2023-01-22T08:53:18.706Z,12.27
2023-01-22T08:55:50.392Z,12.39
2023-01-22T08:58:21.057Z,12.30
2023-01-22T09:00:49.390Z,12.45
2023-01-22T09:03:17.315Z,12.40
2023-01-22T09:05:45.228Z,12.32
2023-01-22T09:08:13.211Z,12.32
2023-01-22T09:10:41.367Z,12.21
2023-01-22T09:13:09.310Z,12.05
2023-01-22T09:15:39.425Z,12.01
2023-01-22T09:18:07.486Z,12.00
2023-01-22T09:20:35.408Z,12.23
2023-01-22T09:23:03.312Z,12.13
2023-01-22T09:25:31.667Z,12.33
2023-01-22T09:28:00.389Z,12.42
2023-01-22T09:30:30.339Z,12.38
2023-01-22T09:33:00.091Z,12.45
2023-01-22T09:35:28.580Z,12.50
2023-01-22T09:37:56.686Z,12.55
2023-01-22T09:40:27.841Z,12.32
2023-01-22T09:43:06.551Z,11.95
2023-01-22T09:45:38.701Z,11.77
2023-01-22T09:48:14.565Z,11.56
2023-01-22T09:50:42.784Z,11.38
2023-01-22T09:53:16.517Z,11.22
2023-01-22T09:55:47.660Z,11.14
2023-01-22T09:58:18.495Z,11.11
2023-01-22T10:00:52.469Z,11.24
2023-01-22T10:03:31.177Z,11.32
2023-01-22T10:06:03.421Z,11.31
2023-01-22T10:08:34.773Z,11.35
2023-01-22T10:11:02.907Z,11.36
2023-01-22T10:13:33.716Z,11.45
2023-01-22T10:16:02.227Z,11.37
2023-01-22T10:18:36.202Z,11.45
2023-01-22T10:21:06.486Z,11.54
2023-01-22T10:23:35.781Z,11.59
2023-01-22T10:26:15.083Z,11.49
2023-01-22T10:28:46.307Z,11.42
2023-01-22T10:31:26.266Z,11.19
2023-01-22T10:33:59.734Z,11.23
2023-01-22T10:36:28.816Z,11.19
2023-01-22T10:39:13.455Z,11.11
2023-01-22T10:41:42.050Z,11.13
2023-01-22T10:44:18.642Z,11.29
2023-01-22T10:46:49.223Z,11.48
2023-01-22T10:49:20.559Z,11.60
2023-01-22T10:51:53.932Z,11.67
2023-01-22T10:54:25.846Z,11.81
2023-01-22T10:57:04.952Z,11.87
2023-01-22T10:59:33.317Z,11.90
2023-01-22T11:02:03.162Z,12.05
2023-01-22T11:04:34.372Z,12.09
2023-01-22T11:07:08.403Z,12.06
2023-01-22T11:09:38.694Z,11.98
2023-01-22T11:12:13.439Z,12.03
2023-01-22T11:14:41.454Z,12.00
2023-01-22T11:17:19.135Z,11.96
2023-01-22T11:19:56.786Z,11.96
2023-01-22T11:22:29.801Z,11.96
2023-01-22T11:24:57.717Z,11.99
2023-01-22T11:27:54.299Z,11.97
2023-01-22T11:30:49.538Z,12.03
2023-01-22T11:33:33.716Z,11.96
2023-01-22T11:36:10.867Z,12.08
2023-01-22T11:38:49.130Z,12.30
2023-01-22T11:41:27.854Z,12.48
2023-01-22T11:44:21.676Z,12.75
2023-01-22T11:47:02.739Z,12.91
2023-01-22T11:49:41.633Z,13.14
2023-01-22T11:52:23.492Z,13.20
2023-01-22T11:55:04.448Z,13.31
2023-01-22T11:57:37.819Z,13.54
2023-01-22T12:00:39.783Z,13.56
2023-01-22T12:03:23.773Z,13.61
2023-01-22T12:06:06.640Z,13.65
2023-01-22T12:08:47.749Z,13.69
2023-01-22T12:11:34.866Z,13.72
2023-01-22T12:14:33.524Z,13.59
2023-01-22T12:17:12.372Z,13.81
2023-01-22T12:20:14.815Z,13.67
2023-01-22T12:22:48.548Z,13.70
2023-01-22T12:25:27.558Z,13.72
2023-01-22T12:28:00.878Z,13.70
2023-01-22T12:30:34.307Z,13.68
2023-01-22T12:33:05.235Z,13.76
2023-01-22T12:35:33.661Z,13.80
2023-01-22T12:38:12.253Z,13.85
2023-01-22T12:41:07.398Z,13.74
2023-01-22T12:43:39.015Z,13.78
2023-01-22T12:46:19.053Z,13.99
2023-01-22T12:49:03.149Z,14.02
2023-01-22T12:51:38.719Z,14.05
2023-01-22T12:54:23.592Z,13.97
2023-01-22T12:56:56.624Z,14.00
2023-01-22T12:59:32.942Z,13.95
2023-01-22T13:02:03.274Z,13.74
2023-01-22T13:04:32.527Z,13.86
2023-01-22T13:07:21.477Z,13.94
2023-01-22T13:09:49.670Z,14.01
2023-01-22T13:12:28.611Z,14.02
2023-01-22T13:14:57.717Z,13.92
2023-01-22T13:17:30.496Z,13.99
2023-01-22T13:19:59.438Z,14.10
2023-01-22T13:22:28.782Z,14.00
2023-01-22T13:24:58.500Z,14.10
2023-01-22T13:27:30.680Z,14.08
2023-01-22T13:30:08.929Z,14.11
2023-01-22T13:32:37.226Z,14.12
2023-01-22T13:35:06.613Z,13.92
2023-01-22T13:37:35.898Z,13.96
2023-01-22T13:40:13.326Z,13.88
2023-01-22T13:42:46.339Z,13.92
2023-01-22T13:45:20.221Z,13.90
2023-01-22T13:47:48.177Z,14.02
2023-01-22T13:50:21.635Z,14.05
2023-01-22T13:52:50.441Z,14.00
2023-01-22T13:55:20.368Z,14.09
2023-01-22T13:57:51.815Z,14.08
2023-01-22T14:00:25.481Z,14.10
2023-01-22T14:02:54.027Z,14.04
2023-01-22T14:05:24.414Z,14.12
2023-01-22T14:07:53.087Z,14.13
2023-01-22T14:10:23.794Z,14.08
2023-01-22T14:13:04.798Z,14.01
2023-01-22T14:15:33.659Z,13.96
2023-01-22T14:18:10.780Z,14.08
2023-01-22T14:20:40.394Z,14.02
2023-01-22T14:23:08.803Z,13.96
2023-01-22T14:25:38.377Z,14.00
2023-01-22T14:28:08.570Z,13.96
2023-01-22T14:30:36.537Z,13.92
2023-01-22T14:33:05.235Z,13.77
2023-01-22T14:35:33.166Z,13.78
2023-01-22T14:38:01.251Z,13.74
2023-01-22T14:40:30.338Z,13.81
2023-01-22T14:43:00.614Z,13.78
2023-01-22T14:45:30.251Z,13.78
2023-01-22T14:47:58.197Z,13.81
2023-01-22T14:50:26.098Z,13.82
2023-01-22T14:52:54.357Z,13.74
2023-01-22T14:55:22.305Z,13.78
2023-01-22T14:57:50.412Z,13.75
2023-01-22T15:00:20.374Z,13.69
2023-01-22T15:02:49.800Z,13.61
2023-01-22T15:05:17.986Z,13.43
2023-01-22T15:07:45.883Z,13.39
2023-01-22T15:10:13.812Z,13.45
2023-01-22T15:12:41.700Z,13.38
2023-01-22T15:15:10.506Z,13.32
2023-01-22T15:17:38.410Z,13.30
2023-01-22T15:20:08.891Z,13.20
2023-01-22T15:22:36.770Z,13.06
2023-01-22T15:25:05.115Z,13.07
2023-01-22T15:27:33.013Z,13.10
2023-01-22T15:30:04.050Z,12.97
2023-01-22T15:32:32.217Z,12.90
2023-01-22T15:35:00.234Z,12.89
2023-01-22T15:37:29.515Z,12.91
2023-01-22T15:39:57.461Z,12.76
2023-01-22T15:42:25.419Z,12.88
2023-01-22T15:44:53.301Z,12.89
2023-01-22T15:47:21.175Z,12.89
2023-01-22T15:49:49.082Z,12.92
2023-01-22T15:52:16.980Z,12.86
2023-01-22T15:54:47.194Z,12.82
2023-01-22T15:57:15.538Z,12.71
2023-01-22T15:59:43.446Z,12.69
2023-01-22T16:02:12.126Z,12.61
2023-01-22T16:04:40.078Z,12.44
2023-01-22T16:07:07.990Z,12.47
2023-01-22T16:09:35.968Z,12.23
2023-01-22T16:12:05.930Z,12.36
2023-01-22T16:14:33.819Z,12.46
2023-01-22T16:17:01.780Z,12.51
2023-01-22T16:19:29.747Z,12.53
2023-01-22T16:21:57.642Z,12.50
2023-01-22T16:24:25.559Z,12.44
2023-01-22T16:26:53.452Z,12.48
2023-01-22T16:29:22.817Z,12.48
2023-01-22T16:31:50.808Z,12.45
2023-01-22T16:34:21.871Z,12.26
2023-01-22T16:36:50.435Z,12.28
2023-01-22T16:39:20.016Z,12.33
2023-01-22T16:41:49.495Z,12.30
2023-01-22T16:44:19.151Z,12.33
2023-01-22T16:46:52.415Z,12.32
2023-01-22T16:49:22.162Z,12.36
2023-01-22T16:51:52.149Z,12.21
2023-01-22T16:54:22.686Z,12.25
2023-01-22T16:56:51.376Z,12.25
2023-01-22T16:59:19.321Z,12.18
2023-01-22T17:01:48.826Z,11.97
2023-01-22T17:04:17.208Z,11.98
2023-01-22T17:06:47.104Z,11.93
2023-01-22T17:09:17.547Z,11.81
2023-01-22T17:11:47.151Z,11.98
2023-01-22T17:14:18.499Z,11.79
2023-01-22T17:16:46.456Z,11.77
2023-01-22T17:19:16.075Z,11.87
2023-01-22T17:21:44.639Z,11.91
2023-01-22T17:24:13.545Z,11.90
2023-01-22T17:26:42.593Z,11.81
2023-01-22T17:29:11.122Z,11.77
2023-01-22T17:31:39.197Z,11.79
2023-01-22T17:34:10.936Z,11.87
2023-01-22T17:36:41.066Z,11.79
2023-01-22T17:39:12.086Z,11.76
2023-01-22T17:41:39.979Z,11.79
2023-01-22T17:44:07.914Z,11.83
2023-01-22T17:46:35.986Z,11.80
2023-01-22T17:49:04.762Z,11.56
2023-01-22T17:51:34.512Z,11.53
2023-01-22T17:54:06.137Z,11.65
2023-01-22T17:56:36.984Z,11.32
2023-01-22T17:59:07.098Z,11.41
2023-01-22T18:01:36.874Z,11.40
2023-01-22T18:04:07.657Z,11.38
2023-01-22T18:06:36.501Z,11.28
2023-01-22T18:09:06.911Z,11.33
2023-01-22T18:11:36.193Z,11.37
2023-01-22T18:14:05.920Z,11.30
2023-01-22T18:16:37.169Z,11.19
2023-01-22T18:19:07.290Z,11.26
2023-01-22T18:21:36.205Z,11.22
2023-01-22T18:24:08.343Z,11.37
2023-01-22T18:26:37.413Z,11.34
2023-01-22T18:29:06.245Z,11.07
2023-01-22T18:31:35.051Z,11.11
2023-01-22T18:34:05.215Z,11.10
2023-01-22T18:36:35.685Z,11.11
2023-01-22T18:39:07.453Z,11.11
2023-01-22T18:41:36.443Z,11.12
2023-01-22T18:44:04.997Z,11.12
2023-01-22T18:46:36.951Z,10.81
2023-01-22T18:49:06.951Z,10.96
2023-01-22T18:51:35.508Z,10.92
2023-01-22T18:54:06.072Z,10.93
2023-01-22T18:56:35.738Z,10.83
2023-01-22T18:59:03.626Z,10.77
2023-01-22T19:01:33.549Z,10.73
2023-01-22T19:04:03.361Z,10.74
2023-01-22T19:06:33.491Z,10.63
2023-01-22T19:09:04.991Z,10.62
2023-01-22T19:11:36.943Z,10.75
2023-01-22T19:14:07.302Z,10.89
2023-01-22T19:16:35.274Z,10.91
2023-01-22T19:19:07.870Z,10.90
2023-01-22T19:21:35.831Z,10.89
2023-01-22T19:24:03.962Z,10.70
2023-01-22T19:26:33.778Z,10.61
2023-01-22T19:29:07.162Z,10.44
2023-01-22T19:31:37.192Z,10.40
2023-01-22T19:34:06.257Z,10.35
2023-01-22T19:36:38.248Z,10.34
2023-01-22T19:39:09.522Z,10.43
2023-01-22T19:41:38.106Z,10.35
2023-01-22T19:44:07.516Z,10.57
2023-01-22T19:46:35.584Z,10.60
2023-01-22T19:49:05.372Z,10.42
2023-01-22T19:51:33.313Z,10.30
2023-01-22T19:54:02.505Z,10.45
2023-01-22T19:56:33.779Z,10.47
2023-01-22T19:59:05.967Z,10.39
2023-01-22T20:01:36.847Z,10.50
2023-01-22T20:04:08.927Z,10.54
2023-01-22T20:06:37.107Z,10.66
2023-01-22T20:09:05.534Z,10.57
2023-01-22T20:11:33.911Z,10.49
2023-01-22T20:14:01.995Z,10.41
2023-01-22T20:16:31.179Z,10.31
2023-01-22T20:19:00.598Z,10.30
2023-01-22T20:21:30.020Z,10.08
2023-01-22T20:23:58.023Z,10.03
2023-01-22T20:26:26.018Z,10.03
2023-01-22T20:28:53.946Z,10.15
2023-01-22T20:31:24.586Z,10.26
2023-01-22T20:33:54.726Z,10.08
2023-01-22T20:36:29.218Z,10.00
2023-01-22T20:38:57.856Z,10.01
2023-01-22T20:41:28.555Z,10.18
2023-01-22T20:43:56.572Z,10.13
2023-01-22T20:46:26.016Z,9.83
2023-01-22T20:48:54.725Z,9.69
2023-01-22T20:51:26.390Z,9.79
2023-01-22T20:53:55.730Z,9.77
2023-01-22T20:56:28.420Z,9.67
2023-01-22T20:58:57.328Z,9.78
2023-01-22T21:01:25.602Z,9.57
2023-01-22T21:03:54.883Z,9.54
2023-01-22T21:06:24.969Z,9.55
2023-01-22T21:08:56.171Z,9.50
2023-01-22T21:11:25.124Z,9.62
2023-01-22T21:13:54.265Z,9.36
2023-01-22T21:16:26.407Z,9.43
2023-01-22T21:18:55.678Z,9.42
2023-01-22T21:21:25.634Z,9.32
2023-01-22T21:23:55.349Z,9.30
2023-01-22T21:26:26.860Z,9.24
2023-01-22T21:28:56.281Z,9.37
2023-01-22T21:31:24.988Z,9.17
2023-01-22T21:34:02.469Z,9.37
2023-01-22T21:36:32.678Z,9.36
2023-01-22T21:39:01.149Z,9.28
2023-01-22T21:41:29.724Z,9.45
2023-01-22T21:44:15.270Z,9.33
2023-01-22T21:46:45.597Z,9.31
2023-01-22T21:49:19.994Z,9.14
2023-01-22T21:51:51.192Z,9.10
2023-01-22T21:54:22.278Z,9.16
2023-01-22T21:56:50.861Z,9.10
2023-01-22T21:59:19.387Z,9.07
2023-01-22T22:01:50.294Z,9.16
2023-01-22T22:04:18.920Z,9.14
2023-01-22T22:06:46.963Z,9.18
2023-01-22T22:09:21.945Z,9.28
2023-01-22T22:11:52.394Z,8.97
2023-01-22T22:14:21.384Z,9.05
2023-01-22T22:16:49.573Z,8.93
2023-01-22T22:19:18.957Z,8.91
2023-01-22T22:21:47.399Z,8.85
2023-01-22T22:24:16.685Z,9.03
2023-01-22T22:26:44.835Z,9.16
2023-01-22T22:29:12.720Z,9.17
2023-01-22T22:31:40.647Z,8.95
2023-01-22T22:34:08.743Z,8.89
2023-01-22T22:36:36.774Z,8.92
2023-01-22T22:39:06.544Z,8.89
2023-01-22T22:41:38.565Z,8.86
2023-01-22T22:44:07.445Z,8.94
2023-01-22T22:46:37.814Z,8.94
2023-01-22T22:49:05.969Z,8.82
2023-01-22T22:51:35.830Z,8.94
2023-01-22T22:54:05.717Z,9.01
2023-01-22T22:56:35.089Z,8.86
2023-01-22T22:59:03.347Z,8.93
2023-01-22T23:01:33.230Z,8.82
2023-01-22T23:04:01.683Z,8.68
2023-01-22T23:06:31.717Z,8.66
2023-01-22T23:09:00.521Z,8.64
2023-01-22T23:11:31.094Z,8.76
2023-01-22T23:14:02.774Z,8.85
2023-01-22T23:16:32.432Z,8.66
2023-01-22T23:19:02.135Z,8.41
2023-01-22T23:21:30.892Z,8.50
2023-01-22T23:23:58.790Z,8.49
2023-01-22T23:26:30.034Z,8.51
2023-01-22T23:29:00.627Z,8.50
2023-01-22T23:31:31.913Z,8.47
2023-01-22T23:34:02.539Z,8.40
2023-01-22T23:36:32.708Z,8.30
2023-01-22T23:39:00.651Z,8.26
2023-01-22T23:41:29.143Z,8.35
2023-01-22T23:43:57.146Z,8.24
2023-01-22T23:46:29.206Z,8.42
2023-01-22T23:49:00.022Z,8.46
2023-01-22T23:51:28.651Z,8.41
2023-01-22T23:53:56.701Z,8.37
2023-01-22T23:56:27.830Z,8.42
2023-01-22T23:58:56.800Z,8.49
